Data for 01/18/2011

Time Sea-Level Adjusted Pressure Absolute Pressure Temperature Relative Humidity Dew Point   
(mb) (inHg) (mb) (inHg) (C) (F) (%) (C) (F)
00:05 1014 29.94 843 24.89 3.1 37.6 60 -3.8 25.1
00:10 1014 29.94 843 24.89 3.1 37.7 59 -4 24.7
00:15 1014 29.94 843 24.89 3.2 37.7 58 -4.2 24.4
00:20 1014 29.94 843 24.89 3.3 37.9 59 -4.1 24.7
00:25 1014 29.94 843 24.89 3.4 38 59 -3.9 25.1
00:30 1014 29.94 843 24.89 3.2 37.8 60 -3.9 25
00:35 1014 29.94 843 24.89 3.1 37.7 60 -4 24.9
00:40 1014 29.94 843 24.89 3.2 37.7 57 -4.4 24
00:45 1014 29.94 843 24.89 3.3 38 56 -4.5 23.9
00:50 1014 29.94 843 24.89 3.3 37.9 58 -4.1 24.6
00:55 1014 29.94 843 24.89 3.1 37.7 58 -4.4 24
01:00 1014 29.94 843 24.89 3.2 37.7 57 -4.4 24
01:05 1014 29.94 843 24.89 3.2 37.7 58 -4.3 24.3
01:10 1014 29.94 843 24.89 3.2 37.7 60 -3.9 25
01:15 1014 29.94 843 24.89 3.1 37.6 60 -3.9 25
01:20 1014 29.94 843 24.89 3.1 37.6 59 -4.1 24.7
01:25 1014 29.94 843 24.89 3.2 37.8 59 -4 24.9
01:30 1014 29.94 843 24.89 3.1 37.6 58 -4.3 24.2
01:35 1014 29.94 843 24.89 3.2 37.7 57 -4.6 23.8
01:40 1014 29.94 843 24.89 3.3 38 56 -4.7 23.6
01:45 1014 29.94 843 24.89 3.4 38.1 57 -4.3 24.3
01:50 1014 29.94 843 24.89 3.4 38.1 55 -4.9 23.2
01:55 1014 29.94 843 24.89 3.4 38.2 53 -5.2 22.6
02:00 1014 29.94 843 24.89 3.5 38.2 53 -5.2 22.7
02:05 1014 29.94 843 24.89 3.4 38.1 53 -5.3 22.4
02:10 1014 29.94 843 24.89 3.4 38.1 52 -5.6 21.9
02:15 1014 29.94 844 24.92 3.4 38 53 -5.4 22.2
02:20 1014 29.94 844 24.92 3.1 37.5 56 -4.8 23.4
02:25 1014 29.94 844 24.92 2.8 37.1 54 -5.6 21.9
02:30 1014 29.94 844 24.92 3 37.5 52 -5.9 21.5
02:35 1015 29.97 844 24.92 3.1 37.7 54 -5.4 22.4
02:40 1015 29.97 844 24.92 3 37.3 55 -5.2 22.6
02:45 1015 29.97 844 24.92 2.8 37 57 -4.8 23.4
02:50 1015 29.97 844 24.92 2.6 36.6 58 -5 23
02:55 1015 29.97 844 24.92 2.5 36.6 56 -5.3 22.5
03:00 1015 29.97 844 24.92 2.7 36.9 54 -5.6 21.9
03:05 1015 29.97 844 24.92 2.9 37.2 55 -5.4 22.3
03:10 1015 29.97 844 24.92 3 37.4 50 -6.3 20.6
03:15 1015 29.97 844 24.92 3.3 37.9 51 -5.8 21.5
03:20 1015 29.97 844 24.92 3.1 37.6 53 -5.6 21.9
03:25 1015 29.97 844 24.92 3 37.3 54 -5.4 22.3
03:30 1015 29.97 844 24.92 2.7 36.8 56 -5.3 22.4
03:35 1015 29.97 844 24.92 2.5 36.6 55 -5.7 21.8
03:40 1015 29.97 844 24.92 2.6 36.6 55 -5.6 21.9
03:45 1015 29.97 844 24.92 2.6 36.6 55 -5.7 21.8
03:50 1015 29.97 844 24.92 2.5 36.6 55 -5.6 21.9
03:55 1015 29.97 844 24.92 2.5 36.5 56 -5.5 22.1
04:00 1015 29.97 844 24.92 2.3 36.2 58 -5.1 22.8
04:05 1015 29.97 844 24.92 2.1 35.7 58 -5.4 22.4
04:10 1015 29.97 844 24.92 2.1 35.7 57 -5.6 22
04:15 1015 29.97 844 24.92 1.9 35.4 57 -5.6 21.9
04:20 1015 29.97 844 24.92 1.7 35.1 56 -6.2 20.9
04:25 1015 29.97 844 24.92 1.8 35.2 58 -5.7 21.7
04:30 1015 29.97 844 24.92 1.6 34.9 57 -6.1 21.1
04:35 1015 29.97 844 24.92 1.6 34.9 55 -6.6 20.2
04:40 1015 29.97 844 24.92 2.1 35.8 52 -6.9 19.6
04:45 1015 29.97 844 24.92 2.3 36.1 51 -6.7 19.9
04:50 1015 29.97 844 24.92 2.3 36.2 51 -6.8 19.7
04:55 1015 29.97 845 24.95 2.5 36.4 49 -7.1 19.2
05:00 1015 29.97 845 24.95 2.5 36.4 49 -7.2 19.1
05:05 1015 29.97 845 24.95 2.3 36.2 51 -6.8 19.8
05:10 1015 29.97 845 24.95 2.3 36.1 48 -7.5 18.5
05:15 1015 29.97 845 24.95 2.5 36.5 49 -7.2 19
05:20 1015 29.97 845 24.95 2.6 36.6 48 -7.4 18.7
05:25 1015 29.97 845 24.95 2.6 36.7 49 -6.9 19.5
05:30 1015 29.97 845 24.95 2.5 36.4 50 -6.8 19.7
05:35 1015 29.97 845 24.95 2.3 36.2 51 -6.9 19.6
05:40 1015 29.97 845 24.95 2.2 36 50 -7 19.4
05:45 1015 29.97 845 24.95 2.2 35.9 50 -7.1 19.2
05:50 1015 29.97 845 24.95 2.1 35.7 51 -7 19.4
05:55 1015 29.97 845 24.95 2.4 36.3 46 -8 17.6
06:00 1015 29.97 845 24.95 2.7 36.8 48 -7.2 19
06:05 1016 30 845 24.95 2.5 36.5 50 -6.9 19.5
06:10 1016 30 845 24.95 2.3 36.2 49 -7.2 19.1
06:15 1016 30 845 24.95 2.3 36.2 51 -6.8 19.7
06:20 1016 30 845 24.95 2.2 35.9 52 -6.6 20.1
06:25 1016 30 845 24.95 2 35.7 54 -6.2 20.8
06:30 1016 30 845 24.95 1.8 35.3 54 -6.5 20.3
06:35 1016 30 845 24.95 2 35.6 51 -7.1 19.2
06:40 1016 30 845 24.95 2.2 36 51 -7 19.4
06:45 1016 30 845 24.95 2.2 36 52 -6.8 19.8
06:50 1016 30 845 24.95 2.1 35.8 53 -6.5 20.3
06:55 1016 30 845 24.95 2 35.7 55 -6.2 20.8
07:00 1016 30 845 24.95 1.8 35.3 56 -6 21.2
07:05 1016 30 845 24.95 1.7 35.1 57 -6 21.2
07:10 1016 30 845 24.95 1.6 34.8 57 -6.1 21
07:15 1016 30 845 24.95 1.5 34.8 58 -5.9 21.3
07:20 1016 30 845 24.95 1.4 34.6 57 -6.1 21
07:25 1016 30 845 24.95 1.4 34.5 57 -6.1 21
07:30 1016 30 845 24.95 1.2 34.2 57 -6.5 20.4
07:35 1016 30 845 24.95 1.4 34.5 55 -6.8 19.8
07:40 1016 30 845 24.95 1.5 34.8 55 -6.6 20.1
07:45 1016 30 845 24.95 1.7 35 53 -6.9 19.6
07:50 1016 30 845 24.95 1.8 35.2 52 -7.1 19.2
07:55 1016 30 845 24.95 1.8 35.3 51 -7.3 18.9
08:00 1016 30 845 24.95 1.9 35.3 51 -7.2 19
08:05 1016 30 845 24.95 1.7 35.1 55 -6.3 20.7
08:10 1016 30 845 24.95 1.3 34.3 55 -6.8 19.7
08:15 1016 30 845 24.95 1.4 34.5 52 -7.3 18.8
08:20 1016 30 845 24.95 1.7 35.1 49 -7.9 17.9
08:25 1016 30 845 24.95 2 35.6 47 -8.1 17.4
08:30 1016 30 845 24.95 2.1 35.8 48 -7.8 18
08:35 1016 30 845 24.95 2.2 35.9 48 -7.7 18.1
08:40 1016 30 845 24.95 2.2 35.9 49 -7.6 18.4
08:45 1016 30 845 24.95 2.1 35.9 49 -7.4 18.7
08:50 1016 30 845 24.95 2 35.6 51 -7.1 19.2
08:55 1016 30 845 24.95 1.9 35.4 50 -7.3 18.8
09:00 1016 30 845 24.95 1.9 35.5 51 -7.1 19.1
09:05 1016 30 845 24.95 1.9 35.4 51 -7.3 18.9
09:10 1016 30 845 24.95 2 35.7 50 -7.4 18.7
09:15 1016 30 845 24.95 2.1 35.8 50 -7.1 19.1
09:20 1016 30 845 24.95 2.1 35.7 52 -6.8 19.7
09:25 1016 30 845 24.95 1.8 35.3 52 -7 19.3
09:30 1016 30 845 24.95 1.9 35.3 52 -7.1 19.3
09:35 1016 30 845 24.95 2 35.5 50 -7.5 18.5
09:40 1016 30 845 24.95 1.9 35.5 47 -8.2 17.3
09:45 1016 30 845 24.95 2.1 35.8 43 -9.2 15.5
09:50 1016 30 845 24.95 2.4 36.4 42 -9.2 15.4
09:55 1016 30 845 24.95 2.5 36.6 43 -8.7 16.4
10:00 1016 30 845 24.95 2.4 36.4 45 -8.3 17.1
10:05 1016 30 845 24.95 2.4 36.3 45 -8.3 17
10:10 1016 30 845 24.95 2.5 36.4 45 -8.3 17.1
10:15 1016 30 845 24.95 2.5 36.5 46 -8.1 17.5
10:20 1016 30 845 24.95 2.6 36.6 45 -8.3 17.1
10:25 1016 30 845 24.95 2.6 36.8 44 -8.4 16.9
10:30 1016 30 845 24.95 2.7 36.8 44 -8.3 17
10:35 1016 30 845 24.95 2.7 36.9 44 -8.5 16.7
10:40 1016 30 845 24.95 2.8 37 43 -8.7 16.3
10:45 1016 30 845 24.95 2.9 37.2 43 -8.4 16.9
10:50 1016 30 845 24.95 2.9 37.3 46 -7.7 18.2
10:55 1016 30 845 24.95 3 37.3 46 -7.4 18.6
11:00 1016 30 845 24.95 3 37.4 46 -7.4 18.7
11:05 1016 30 845 24.95 3.1 37.5 46 -7.6 18.4
11:10 1016 30 845 24.95 3.2 37.7 44 -8 17.6
11:15 1016 30 845 24.95 3.3 38 44 -7.8 17.9
11:20 1016 30 845 24.95 3.4 38.1 44 -7.7 18.2
11:25 1016 30 845 24.95 3.4 38.1 46 -7.3 18.9
11:30 1016 30 845 24.95 3.3 38 45 -7.5 18.6
11:35 1016 30 845 24.95 3.6 38.4 43 -7.7 18.1
11:40 1015 29.97 845 24.95 3.7 38.6 44 -7.5 18.6
11:45 1015 29.97 845 24.95 3.7 38.7 43 -7.8 18
11:50 1015 29.97 845 24.95 3.8 38.8 44 -7.5 18.5
11:55 1015 29.97 845 24.95 3.6 38.5 45 -7.4 18.8
12:00 1015 29.97 844 24.92 3.6 38.4 45 -7.2 19.1
12:05 1015 29.97 844 24.92 3.5 38.3 45 -7.5 18.5
12:10 1015 29.97 844 24.92 3.5 38.3 44 -7.6 18.3
12:15 1015 29.97 844 24.92 3.5 38.3 44 -7.7 18.1
12:20 1015 29.97 844 24.92 3.3 38 45 -7.5 18.5
12:25 1015 29.97 844 24.92 3.2 37.7 45 -7.7 18.1
12:30 1015 29.97 844 24.92 3.1 37.5 45 -7.8 18
12:35 1015 29.97 844 24.92 3 37.4 45 -7.8 17.9
12:40 1015 29.97 844 24.92 2.8 37.1 45 -7.8 17.9
12:45 1014 29.94 844 24.92 3.1 37.6 45 -7.8 18
12:50 1014 29.94 844 24.92 3.2 37.7 43 -8.2 17.2
12:55 1014 29.94 844 24.92 3.2 37.8 44 -7.8 18
13:00 1014 29.94 843 24.89 3.4 38.1 41 -8.6 16.5
13:05 1014 29.94 843 24.89 3.7 38.6 40 -8.6 16.5
13:10 1014 29.94 843 24.89 3.8 38.8 40 -8.7 16.4
13:15 1014 29.94 843 24.89 3.7 38.7 42 -8.1 17.4
13:20 1014 29.94 843 24.89 4 39.2 39 -8.9 16
13:25 1014 29.94 843 24.89 4 39.1 39 -8.9 15.9
13:30 1014 29.94 843 24.89 4.1 39.3 39 -8.5 16.7
13:35 1014 29.94 843 24.89 4.1 39.4 40 -8.4 16.9
13:40 1014 29.94 843 24.89 4.1 39.3 38 -9 15.8
13:45 1013 29.91 843 24.89 4 39.1 41 -8.1 17.4
13:50 1013 29.91 843 24.89 3.9 39 41 -8.3 17.1
13:55 1013 29.91 843 24.89 3.8 38.8 42 -7.8 17.9
14:00 1013 29.91 842 24.86 3.7 38.6 43 -7.9 17.8
14:05 1013 29.91 842 24.86 3.6 38.6 43 -7.7 18.2
14:10 1013 29.91 842 24.86 3.6 38.6 43 -7.7 18.1
14:15 1013 29.91 842 24.86 3.6 38.4 44 -7.6 18.4
14:20 1013 29.91 842 24.86 3.4 38.1 44 -7.8 17.9
14:25 1013 29.91 842 24.86 3.2 37.7 44 -8 17.5
14:30 1013 29.91 842 24.86 3.5 38.2 43 -8 17.6
14:35 1013 29.91 842 24.86 3.5 38.3 41 -8.5 16.6
14:40 1013 29.91 842 24.86 3.6 38.6 39 -9.1 15.6
14:45 1013 29.91 842 24.86 3.8 38.8 39 -8.9 16
14:50 1013 29.91 842 24.86 3.8 38.9 38 -9.1 15.7
14:55 1013 29.91 842 24.86 3.9 39.1 39 -8.8 16.1
15:00 1013 29.91 842 24.86 4 39.2 39 -8.8 16.2
15:05 1013 29.91 842 24.86 4 39.1 39 -8.7 16.4
15:10 1013 29.91 842 24.86 4.1 39.3 40 -8.5 16.8
15:15 1013 29.91 842 24.86 3.9 39.1 39 -8.7 16.3
15:20 1013 29.91 842 24.86 3.9 39 41 -8.3 17
15:25 1013 29.91 842 24.86 3.8 38.8 39 -8.9 16
15:30 1012 29.88 842 24.86 3.8 38.8 41 -8.3 17.1
15:35 1012 29.88 842 24.86 3.8 38.8 41 -8.5 16.8
15:40 1013 29.91 842 24.86 3.7 38.7 40 -8.8 16.2
15:45 1013 29.91 842 24.86 3.7 38.7 40 -8.6 16.6
15:50 1013 29.91 842 24.86 3.7 38.7 40 -8.6 16.5
15:55 1013 29.91 842 24.86 3.6 38.5 39 -9.3 15.3
16:00 1012 29.88 842 24.86 3.6 38.5 39 -9.1 15.5
16:05 1013 29.91 842 24.86 3.6 38.5 37 -9.6 14.7
16:10 1013 29.91 842 24.86 3.6 38.5 38 -9.4 15
16:15 1013 29.91 842 24.86 3.6 38.4 39 -9.2 15.4
16:20 1012 29.88 842 24.86 3.5 38.3 38 -9.4 15.1
16:25 1012 29.88 842 24.86 3.4 38.1 41 -8.7 16.3
16:30 1012 29.88 842 24.86 3.2 37.7 43 -8.4 16.9
16:35 1012 29.88 842 24.86 3 37.4 41 -8.9 16
16:40 1013 29.91 842 24.86 3 37.3 42 -8.6 16.5
16:45 1012 29.88 842 24.86 2.9 37.2 42 -8.8 16.2
16:50 1013 29.91 842 24.86 2.9 37.2 45 -8 17.7
16:55 1012 29.88 842 24.86 2.8 37 46 -7.8 18
17:00 1012 29.88 842 24.86 2.7 36.9 46 -7.7 18.1
17:05 1013 29.91 842 24.86 2.6 36.7 49 -7.2 19.1
17:10 1012 29.88 842 24.86 2.4 36.3 51 -6.6 20.1
17:15 1012 29.88 842 24.86 2.2 36 52 -6.7 19.9
17:20 1012 29.88 842 24.86 2.2 35.9 52 -6.8 19.8
17:25 1012 29.88 842 24.86 2.2 35.9 52 -6.7 20
17:30 1012 29.88 842 24.86 2.1 35.8 53 -6.5 20.3
17:35 1012 29.88 842 24.86 2 35.6 54 -6.4 20.6
17:40 1012 29.88 842 24.86 1.9 35.5 55 -6.3 20.7
17:45 1012 29.88 841 24.83 1.9 35.4 54 -6.4 20.6
17:50 1012 29.88 841 24.83 1.9 35.4 55 -6.2 20.9
17:55 1012 29.88 841 24.83 1.9 35.3 57 -5.9 21.5
18:00 1012 29.88 841 24.83 1.7 35 59 -5.5 22.1
18:05 1012 29.88 841 24.83 1.3 34.3 66 -4.5 23.9
18:10 1012 29.88 842 24.86 0.8 33.5 70 -4.1 24.6
18:15 1012 29.88 841 24.83 0.6 33 70 -4.3 24.2
18:20 1012 29.88 841 24.83 0.6 33.1 71 -4.1 24.7
18:25 1012 29.88 841 24.83 0.4 32.8 77 -3.1 26.4
18:30 1012 29.88 841 24.83 0.1 32.2 79 -3.1 26.5
18:35 1012 29.88 841 24.83 -0.1 31.8 83 -2.7 27.1
18:40 1012 29.88 841 24.83 -0.2 31.6 84 -2.6 27.3
18:45 1012 29.88 841 24.83 -0.3 31.4 85 -2.6 27.3
18:50 1012 29.88 841 24.83 -0.4 31.4 85 -2.6 27.3
18:55 1012 29.88 841 24.83 -0.4 31.3 85 -2.6 27.4
19:00 1012 29.88 841 24.83 -0.4 31.2 85 -2.6 27.4
19:05 1012 29.88 841 24.83 -0.8 30.6 88 -2.6 27.3
19:10 1012 29.88 841 24.83 -1 30.2 89 -2.6 27.2
19:15 1012 29.88 841 24.83 -1.2 29.8 90 -2.6 27.3
19:20 1012 29.88 841 24.83 -1.3 29.7 91 -2.5 27.5
19:25 1012 29.88 841 24.83 -1.4 29.5 93 -2.4 27.7
19:30 1012 29.88 841 24.83 -1.5 29.3 94 -2.3 27.8
19:35 1012 29.88 841 24.83 -1.6 29.2 95 -2.3 27.9
19:40 1012 29.88 841 24.83 -1.6 29.2 95 -2.2 28
19:45 1011 29.85 841 24.83 -1.6 29.1 96 -2.2 28
19:50 1011 29.85 841 24.83 -1.6 29.1 96 -2.2 28
19:55 1011 29.85 841 24.83 -1.6 29.2 96 -2.1 28.1
20:00 1011 29.85 841 24.83 -1.6 29.2 96 -2.2 28.1
20:05 1011 29.85 841 24.83 -1.6 29 96 -2.2 28
20:10 1011 29.85 840 24.81 -1.6 29.1 96 -2.2 28.1
20:15 1011 29.85 840 24.81 -1.6 29.1 96 -2.1 28.2
20:20 1011 29.85 840 24.81 -1.6 29.1 96 -2.2 28.1
20:25 1011 29.85 840 24.81 -1.6 29.1 96 -2.2 28.1
20:30 1011 29.85 840 24.81 -1.6 29.1 96 -2.2 28.1
20:35 1011 29.85 840 24.81 -1.6 29.1 96 -2.1 28.2
20:40 1011 29.85 840 24.81 -1.7 29 96 -2.2 28.1
20:45 1011 29.85 840 24.81 -1.7 28.9 96 -2.2 28
20:50 1011 29.85 840 24.81 -1.7 28.9 96 -2.3 27.9
20:55 1011 29.85 840 24.81 -1.8 28.8 97 -2.3 27.9
21:00 1011 29.85 840 24.81 -1.7 29 97 -2.2 28.1
21:05 1011 29.85 840 24.81 -1.7 28.9 97 -2.2 28.1
21:10 1011 29.85 840 24.81 -1.5 29.3 97 -1.9 28.5
21:15 1011 29.85 840 24.81 -1.4 29.5 97 -1.9 28.6
21:20 1011 29.85 840 24.81 -1.4 29.4 96 -2 28.4
21:25 1011 29.85 840 24.81 -1.6 29.2 96 -2.1 28.2
21:30 1011 29.85 840 24.81 -1.6 29.1 96 -2.1 28.2
21:35 1011 29.85 840 24.81 -1.7 28.9 95 -2.3 27.8
21:40 1011 29.85 840 24.81 -2 28.3 95 -2.7 27.2
21:45 1011 29.85 840 24.81 -2.1 28.2 95 -2.8 27
21:50 1011 29.85 840 24.81 -2.1 28.1 96 -2.7 27.1
21:55 1011 29.85 840 24.81 -2.2 28.1 96 -2.8 27
22:00 1011 29.85 840 24.81 -2.2 28.1 96 -2.8 27
22:05 1011 29.85 840 24.81 -2.2 28 96 -2.8 27
22:10 1011 29.85 840 24.81 -2.2 28 96 -2.8 27
22:15 1011 29.85 840 24.81 -2.3 27.9 96 -2.9 26.8
22:20 1011 29.85 840 24.81 -2.3 27.9 96 -2.9 26.9
22:25 1011 29.85 840 24.81 -2.3 27.9 96 -2.9 26.8
22:30 1011 29.85 840 24.81 -2.2 28 96 -2.8 26.9
22:35 1011 29.85 840 24.81 -2.3 27.8 96 -2.9 26.8
22:40 1011 29.85 840 24.81 -2.3 27.8 96 -2.9 26.8
22:45 1011 29.85 840 24.81 -2.4 27.7 96 -3 26.7
22:50 1011 29.85 840 24.81 -2.4 27.7 96 -2.9 26.8
22:55 1011 29.85 840 24.81 -2.4 27.7 96 -2.9 26.7
23:00 1011 29.85 840 24.81 -2.5 27.6 96 -3 26.7
23:05 1011 29.85 840 24.81 -2.5 27.6 96 -3 26.6
23:10 1011 29.85 840 24.81 -2.5 27.5 96 -3 26.6
23:15 1011 29.85 840 24.81 -2.6 27.3 96 -3.2 26.3
23:20 1011 29.85 840 24.81 -2.7 27.1 96 -3.2 26.2
23:25 1011 29.85 840 24.81 -2.7 27.1 96 -3.2 26.2
23:30 1011 29.85 840 24.81 -2.7 27.1 97 -3.2 26.2
23:35 1011 29.85 840 24.81 -2.7 27.2 97 -3.1 26.4
23:40 1011 29.85 840 24.81 -2.7 27.2 96 -3.2 26.2
23:45 1011 29.85 840 24.81 -2.7 27.2 96 -3.1 26.3
23:50 1011 29.85 840 24.81 -2.6 27.2 96 -3.2 26.3
23:55 1011 29.85 840 24.81 -2.7 27.1 96 -3.3 26.1
24:00 1011 29.85 840 24.81 -2.7 27.1 96 -3.2 26.2